<?xml version='1.0' encoding='UTF-8'?>
<gpx xmlns="http://www.topografix.com/GPX/1/1" creator="www.balnam.be" version="1.1" xmlns:xsi="http://www.w3.org/2001/XMLSchema-instance" xsi:schemaLocation="http://www.topografix.com/GPX/1/1 http://www.topografix.com/GPX/1/1/gpx.xsd">
<trk>
<name>bolot43</name>
<cmt>r</cmt>
<desc>Ottignies Chemin n°43 Rue du Grand-Mitan / Boulevard André Oleffe / Rue Basse</desc>
<link href="https://chemins.be/ottignies/chemin/43"/><trkseg>
<trkpt lat="50.666328" lon="4.596245"><time>2026-05-02T22:52:51Z</time></trkpt>
<trkpt lat="50.666318" lon="4.596329"><time>2026-05-02T23:02:51Z</time></trkpt>
<trkpt lat="50.666488" lon="4.597023"><time>2026-05-02T23:12:51Z</time></trkpt>
<trkpt lat="50.666343" lon="4.597419"><time>2026-05-02T23:22:51Z</time></trkpt>
<trkpt lat="50.665844" lon="4.598073"><time>2026-05-02T23:32:51Z</time></trkpt>
<trkpt lat="50.665702" lon="4.598957"><time>2026-05-02T23:42:51Z</time></trkpt>
<trkpt lat="50.665906" lon="4.600246"><time>2026-05-02T23:52:51Z</time></trkpt>
<trkpt lat="50.666083" lon="4.601675"><time>2026-05-03T00:02:51Z</time></trkpt>
<trkpt lat="50.667613" lon="4.605601"><time>2026-05-03T00:12:51Z</time></trkpt>
<trkpt lat="50.668266" lon="4.607061"><time>2026-05-03T00:22:51Z</time></trkpt>
<trkpt lat="50.668246" lon="4.608051"><time>2026-05-03T00:32:51Z</time></trkpt>
</trkseg></trk>
<trk>
<name>bolot43</name>
<cmt>v</cmt>
<desc>Ottignies Chemin n°43 Rue du Grand-Mitan / Boulevard André Oleffe / Rue Basse</desc>
<link href="https://chemins.be/ottignies/chemin/43"/><trkseg>
<trkpt lat="50.668246" lon="4.608051"><time>2026-05-03T00:32:51Z</time></trkpt>
<trkpt lat="50.667994" lon="4.608333"><time>2026-05-03T00:42:51Z</time></trkpt>
<trkpt lat="50.667669" lon="4.608727"><time>2026-05-03T00:52:51Z</time></trkpt>
<trkpt lat="50.667605" lon="4.609505"><time>2026-05-03T01:02:51Z</time></trkpt>
<trkpt lat="50.667640" lon="4.609717"><time>2026-05-03T01:12:51Z</time></trkpt>
<trkpt lat="50.667585" lon="4.609941"><time>2026-05-03T01:22:51Z</time></trkpt>
<trkpt lat="50.667318" lon="4.611129"><time>2026-05-03T01:32:51Z</time></trkpt>
</trkseg></trk>
<trk>
<name>bolot43</name>
<cmt>s</cmt>
<desc>Ottignies Chemin n°43 Rue du Grand-Mitan / Boulevard André Oleffe / Rue Basse</desc>
<link href="https://chemins.be/ottignies/chemin/43"/><trkseg>
<trkpt lat="50.667318" lon="4.611129"><time>2026-05-03T01:32:51Z</time></trkpt>
<trkpt lat="50.667123" lon="4.613234"><time>2026-05-03T01:42:51Z</time></trkpt>
<trkpt lat="50.667558" lon="4.614701"><time>2026-05-03T01:52:51Z</time></trkpt>
</trkseg></trk>
<trk>
<name>bolot43</name>
<cmt>v</cmt>
<desc>Ottignies Chemin n°43 Rue du Grand-Mitan / Boulevard André Oleffe / Rue Basse</desc>
<link href="https://chemins.be/ottignies/chemin/43"/><trkseg>
<trkpt lat="50.667558" lon="4.614701"><time>2026-05-03T01:52:51Z</time></trkpt>
<trkpt lat="50.666363" lon="4.616202"><time>2026-05-03T02:02:51Z</time></trkpt>
<trkpt lat="50.664883" lon="4.617863"><time>2026-05-03T02:12:51Z</time></trkpt>
</trkseg></trk>
<trk>
<name>bolot43</name>
<cmt>s</cmt>
<desc>Ottignies Chemin n°43 Rue du Grand-Mitan / Boulevard André Oleffe / Rue Basse</desc>
<link href="https://chemins.be/ottignies/chemin/43"/><trkseg>
<trkpt lat="50.664883" lon="4.617863"><time>2026-05-03T02:12:51Z</time></trkpt>
<trkpt lat="50.667323" lon="4.622555"><time>2026-05-03T02:22:51Z</time></trkpt>
<trkpt lat="50.667921" lon="4.624729"><time>2026-05-03T02:32:51Z</time></trkpt>
</trkseg>
</trk>
</gpx>